Time;durP1;ratioP1;P1;durP2;ratioP2;P2;SDS_P1;SDS_P2;PMS_P1;PMS_P2;Temp;Humidity;BMP_temperature;BMP_pressure;BME280_temperature;BME280_humidity;BME280_pressure;Samples;Min_cycle;Max_cycle;Signal;HPM_P1;HPM_P2
2022/07/06 00:02:27;;;;;;;6.37;2.30;;;;;;;;;;5067483;28;20195;-74
2022/07/06 00:04:54;;;;;;;3.40;1.90;;;;;;;;;;5078822;28;20222;-74
2022/07/06 00:07:22;;;;;;;4.80;2.30;;;;;;;;;;5071853;28;20237;-74
2022/07/06 00:09:50;;;;;;;6.13;2.60;;;;;;;;;;5077970;28;20226;-74
2022/07/06 00:12:17;;;;;;;6.70;2.37;;;;;;;;;;5063413;28;20227;-74
2022/07/06 00:14:44;;;;;;;5.13;2.03;;;;;;;;;;5064715;28;20264;-74
2022/07/06 00:17:11;;;;;;;3.30;2.30;;;;;;;;;;5052763;28;20242;-74
2022/07/06 00:19:39;;;;;;;6.43;2.30;;;;;;;;;;5085343;28;20234;-74
2022/07/06 00:22:06;;;;;;;6.90;2.90;;;;;;;;;;5064178;28;20706;-74
2022/07/06 00:24:34;;;;;;;5.17;2.83;;;;;;;;;;5077603;28;20264;-74
2022/07/06 00:27:01;;;;;;;6.07;2.40;;;;;;;;;;5072966;28;20198;-74
2022/07/06 00:29:30;;;;;;;5.37;2.80;;;;;;;;;;5066284;28;20242;-74
2022/07/06 00:31:57;;;;;;;5.10;2.50;;;;;;;;;;5052693;28;20199;-74
2022/07/06 00:34:24;;;;;;;4.43;2.50;;;;;;;;;;5054229;28;20287;-74
2022/07/06 00:36:51;;;;;;;4.50;2.30;;;;;;;;;;5072259;28;20199;-74
2022/07/06 00:39:21;;;;;;;5.40;2.37;;;;;;;;;;5055594;28;20207;-74
2022/07/06 00:41:50;;;;;;;6.53;2.70;;;;;;;;;;5052821;28;20232;-74
2022/07/06 00:44:17;;;;;;;3.93;2.30;;;;;;;;;;5068018;28;20229;-74
2022/07/06 00:46:44;;;;;;;3.07;2.13;;;;;;;;;;5059113;28;20207;-74
2022/07/06 00:50:13;;;;;;;5.10;2.00;;;;;;;;;;5055354;28;20720;-74
2022/07/06 00:51:59;;;;;;;3.50;2.33;;;;;;;;;;5063218;28;20716;-74
2022/07/06 00:54:27;;;;;;;5.00;2.20;;;;;;;;;;5062111;28;20206;-74
2022/07/06 00:56:55;;;;;;;5.40;2.23;;;;;;;;;;5072146;28;20749;-74
2022/07/06 00:59:22;;;;;;;5.27;2.40;;;;;;;;;;5067789;28;20241;-74
2022/07/06 01:01:50;;;;;;;3.57;2.30;;;;;;;;;;5065536;28;20646;-74
2022/07/06 01:04:17;;;;;;;5.07;2.53;;;;;;;;;;5058682;28;20687;-74
2022/07/06 01:06:46;;;;;;;3.07;2.30;;;;;;;;;;5075831;28;20609;-74
2022/07/06 01:09:14;;;;;;;4.70;2.67;;;;;;;;;;5078449;28;20295;-74
2022/07/06 01:11:41;;;;;;;5.37;2.17;;;;;;;;;;5072695;28;20199;-74
2022/07/06 01:14:10;;;;;;;6.10;2.33;;;;;;;;;;5072289;28;20203;-74
2022/07/06 01:16:38;;;;;;;4.53;1.97;;;;;;;;;;5072114;28;20764;-74
2022/07/06 01:19:05;;;;;;;5.00;2.50;;;;;;;;;;5071536;28;20285;-74
2022/07/06 01:21:34;;;;;;;4.00;2.80;;;;;;;;;;5072204;28;20314;-74
2022/07/06 01:24:01;;;;;;;5.97;3.07;;;;;;;;;;5053258;28;20233;-74
2022/07/06 01:26:29;;;;;;;8.00;3.13;;;;;;;;;;5070008;28;20233;-74
2022/07/06 01:28:56;;;;;;;7.00;3.27;;;;;;;;;;5075244;28;20291;-74
2022/07/06 01:31:24;;;;;;;7.83;3.43;;;;;;;;;;5067408;28;20235;-74
2022/07/06 01:33:52;;;;;;;7.63;3.50;;;;;;;;;;5052321;28;20239;-74
2022/07/06 01:36:20;;;;;;;5.57;3.23;;;;;;;;;;5063166;28;20274;-74
2022/07/06 01:38:50;;;;;;;3.70;2.77;;;;;;;;;;5067914;28;20229;-74
2022/07/06 01:41:17;;;;;;;5.73;2.60;;;;;;;;;;5061195;28;20313;-74
2022/07/06 01:43:45;;;;;;;4.90;3.03;;;;;;;;;;5071569;28;20278;-74
2022/07/06 01:46:12;;;;;;;7.03;3.20;;;;;;;;;;5061877;28;20285;-74
2022/07/06 01:48:39;;;;;;;6.30;2.90;;;;;;;;;;5064881;28;20233;-74
2022/07/06 01:51:07;;;;;;;4.33;3.13;;;;;;;;;;5063369;28;20268;-74
2022/07/06 01:53:34;;;;;;;4.03;3.03;;;;;;;;;;5071992;28;20293;-74
2022/07/06 01:56:02;;;;;;;6.13;3.47;;;;;;;;;;5060959;28;20286;-74
2022/07/06 01:58:30;;;;;;;4.93;3.20;;;;;;;;;;5054323;28;20242;-74
2022/07/06 02:00:57;;;;;;;5.90;3.30;;;;;;;;;;5051506;28;20263;-74
2022/07/06 02:03:24;;;;;;;4.53;3.20;;;;;;;;;;5059201;28;20226;-74
2022/07/06 02:05:51;;;;;;;7.97;3.30;;;;;;;;;;5076199;28;20261;-74
2022/07/06 02:08:18;;;;;;;5.70;2.93;;;;;;;;;;5051982;28;20276;-74
2022/07/06 02:10:46;;;;;;;5.27;2.80;;;;;;;;;;5065274;28;20290;-74
2022/07/06 02:13:14;;;;;;;5.93;3.10;;;;;;;;;;5051775;28;20269;-74
2022/07/06 02:15:42;;;;;;;3.80;2.80;;;;;;;;;;5071910;28;20247;-74
2022/07/06 02:18:09;;;;;;;4.20;2.93;;;;;;;;;;5079953;28;20236;-74
2022/07/06 02:20:36;;;;;;;4.03;2.67;;;;;;;;;;5069605;28;20237;-74
2022/07/06 02:23:03;;;;;;;4.33;2.50;;;;;;;;;;5058218;28;20233;-75
2022/07/06 02:25:31;;;;;;;5.27;2.80;;;;;;;;;;5089224;28;20241;-74
2022/07/06 02:27:58;;;;;;;6.17;3.40;;;;;;;;;;5057992;28;20202;-74
2022/07/06 02:30:27;;;;;;;3.87;3.20;;;;;;;;;;5058124;28;20809;-74
2022/07/06 02:32:54;;;;;;;4.60;2.60;;;;;;;;;;5055061;28;20231;-74
2022/07/06 02:35:21;;;;;;;5.17;3.27;;;;;;;;;;5054989;28;20689;-74
2022/07/06 02:37:48;;;;;;;6.73;3.00;;;;;;;;;;5061829;28;20238;-74
2022/07/06 02:40:16;;;;;;;3.47;2.57;;;;;;;;;;5084394;28;20598;-74
2022/07/06 02:42:43;;;;;;;4.37;2.77;;;;;;;;;;5074147;28;20725;-74
2022/07/06 02:45:11;;;;;;;6.23;2.93;;;;;;;;;;5064132;28;20242;-74
2022/07/06 02:47:39;;;;;;;4.33;3.10;;;;;;;;;;5091711;28;20286;-74
2022/07/06 02:50:07;;;;;;;4.53;3.27;;;;;;;;;;5075808;28;20233;-74
2022/07/06 02:52:34;;;;;;;5.93;3.30;;;;;;;;;;5062240;28;20237;-74
2022/07/06 02:55:02;;;;;;;6.20;3.30;;;;;;;;;;5066533;28;20564;-74
2022/07/06 02:57:29;;;;;;;6.07;2.97;;;;;;;;;;5069088;28;20261;-74
2022/07/06 02:59:56;;;;;;;5.93;3.37;;;;;;;;;;5069357;28;20714;-74
2022/07/06 03:02:24;;;;;;;4.57;2.93;;;;;;;;;;5067203;28;20261;-74
2022/07/06 03:04:53;;;;;;;5.57;3.33;;;;;;;;;;5082436;28;20250;-74
2022/07/06 03:07:20;;;;;;;6.63;3.20;;;;;;;;;;5063494;28;20285;-74
2022/07/06 03:09:47;;;;;;;5.60;3.13;;;;;;;;;;5074191;28;20672;-74
2022/07/06 03:12:15;;;;;;;5.20;3.03;;;;;;;;;;5068340;28;20269;-74
2022/07/06 03:14:43;;;;;;;6.50;3.43;;;;;;;;;;5069410;28;20623;-74
2022/07/06 03:17:10;;;;;;;6.00;3.07;;;;;;;;;;5074405;28;20230;-74
2022/07/06 03:19:37;;;;;;;7.77;3.13;;;;;;;;;;5070660;28;20230;-74
2022/07/06 03:22:06;;;;;;;5.57;3.10;;;;;;;;;;5064294;28;20219;-74
2022/07/06 03:24:33;;;;;;;4.30;2.73;;;;;;;;;;5061118;28;20297;-74
2022/07/06 03:27:00;;;;;;;5.23;3.00;;;;;;;;;;5077063;28;20306;-74
2022/07/06 03:29:27;;;;;;;5.57;2.83;;;;;;;;;;5073865;28;20672;-75
2022/07/06 03:31:55;;;;;;;4.87;2.80;;;;;;;;;;5072457;28;20280;-74
2022/07/06 03:34:22;;;;;;;5.00;2.90;;;;;;;;;;5057398;28;20234;-74
2022/07/06 03:36:49;;;;;;;6.13;3.00;;;;;;;;;;5075525;28;20242;-74
2022/07/06 03:39:18;;;;;;;4.37;2.80;;;;;;;;;;5066730;28;20310;-74
2022/07/06 03:41:45;;;;;;;5.40;2.43;;;;;;;;;;5066203;28;20753;-74
2022/07/06 03:44:12;;;;;;;4.77;2.47;;;;;;;;;;5074263;28;20260;-74
2022/07/06 03:46:39;;;;;;;5.67;2.33;;;;;;;;;;5066178;28;20229;-74
2022/07/06 03:49:06;;;;;;;4.67;2.60;;;;;;;;;;5073091;28;20751;-74
2022/07/06 03:51:33;;;;;;;4.53;2.43;;;;;;;;;;5060635;28;20649;-74
2022/07/06 03:54:01;;;;;;;3.77;2.33;;;;;;;;;;5077593;28;20232;-74
2022/07/06 03:56:29;;;;;;;4.93;2.63;;;;;;;;;;5073371;28;20268;-74
2022/07/06 03:58:57;;;;;;;4.00;2.60;;;;;;;;;;5092771;28;20199;-74
2022/07/06 04:01:24;;;;;;;5.73;2.73;;;;;;;;;;5073960;28;20228;-74
2022/07/06 04:03:52;;;;;;;2.87;2.47;;;;;;;;;;5061762;28;20244;-74
2022/07/06 04:06:19;;;;;;;3.40;2.57;;;;;;;;;;5066503;28;20631;-74
2022/07/06 04:08:46;;;;;;;4.80;2.60;;;;;;;;;;5063660;28;20237;-74
2022/07/06 04:11:13;;;;;;;3.67;2.47;;;;;;;;;;5072186;28;20237;-74
2022/07/06 04:13:42;;;;;;;3.83;2.70;;;;;;;;;;5067023;28;20243;-74
2022/07/06 04:16:09;;;;;;;5.80;2.80;;;;;;;;;;5071498;28;20229;-74
2022/07/06 04:18:36;;;;;;;5.07;2.90;;;;;;;;;;5093423;28;20234;-74
2022/07/06 04:21:04;;;;;;;4.67;2.90;;;;;;;;;;5062310;28;20224;-74
2022/07/06 04:23:31;;;;;;;3.27;2.90;;;;;;;;;;5059223;28;20232;-74
2022/07/06 04:25:59;;;;;;;4.87;3.07;;;;;;;;;;5075456;28;20291;-74
2022/07/06 04:28:26;;;;;;;5.77;3.63;;;;;;;;;;5087408;28;20646;-74
2022/07/06 04:30:54;;;;;;;9.40;4.00;;;;;;;;;;5053540;28;20738;-74
2022/07/06 04:33:22;;;;;;;4.80;3.50;;;;;;;;;;5062188;28;20263;-74
2022/07/06 04:35:49;;;;;;;4.77;2.87;;;;;;;;;;5070507;28;20232;-74
2022/07/06 04:38:16;;;;;;;3.97;2.30;;;;;;;;;;5064941;28;20270;-74
2022/07/06 04:40:46;;;;;;;5.10;2.60;;;;;;;;;;5071717;28;20232;-74
2022/07/06 04:43:13;;;;;;;4.03;2.80;;;;;;;;;;5083967;28;20230;-74
2022/07/06 04:45:40;;;;;;;5.67;2.57;;;;;;;;;;5072508;28;20627;-74
2022/07/06 04:48:09;;;;;;;4.23;3.63;;;;;;;;;;5072216;28;20742;-74
2022/07/06 04:50:36;;;;;;;4.60;3.10;;;;;;;;;;5060782;28;20245;-74
2022/07/06 04:53:03;;;;;;;6.70;3.43;;;;;;;;;;5064725;28;20297;-74
2022/07/06 04:55:31;;;;;;;5.73;3.30;;;;;;;;;;5069514;28;20238;-75
2022/07/06 04:57:58;;;;;;;4.90;3.10;;;;;;;;;;5085812;28;20617;-74
2022/07/06 05:00:25;;;;;;;4.23;3.10;;;;;;;;;;5052035;28;20244;-74
2022/07/06 05:02:52;;;;;;;6.13;3.07;;;;;;;;;;5064728;28;20218;-74
2022/07/06 05:05:21;;;;;;;4.23;3.10;;;;;;;;;;5062397;28;20226;-73
2022/07/06 05:07:48;;;;;;;4.00;2.70;;;;;;;;;;5079378;28;20632;-74
2022/07/06 05:10:15;;;;;;;3.93;2.93;;;;;;;;;;5059186;28;20257;-74
2022/07/06 05:12:42;;;;;;;3.73;2.90;;;;;;;;;;5053264;28;20288;-74
2022/07/06 05:15:10;;;;;;;5.47;3.20;;;;;;;;;;5060993;28;20292;-73
2022/07/06 05:17:37;;;;;;;4.97;3.23;;;;;;;;;;5075891;28;20280;-74
2022/07/06 05:20:05;;;;;;;6.93;3.40;;;;;;;;;;5079413;28;20234;-74
2022/07/06 05:22:33;;;;;;;5.47;3.50;;;;;;;;;;5072409;28;20607;-73
2022/07/06 05:25:01;;;;;;;7.43;4.03;;;;;;;;;;5072378;28;20293;-74
2022/07/06 05:27:28;;;;;;;6.80;3.80;;;;;;;;;;5067055;28;20238;-74
2022/07/06 05:29:55;;;;;;;7.00;3.70;;;;;;;;;;5071829;28;20256;-74
2022/07/06 05:32:22;;;;;;;6.33;3.87;;;;;;;;;;5066862;28;20197;-73
2022/07/06 05:34:51;;;;;;;5.07;3.70;;;;;;;;;;5055342;28;20235;-74
2022/07/06 05:37:18;;;;;;;5.13;3.60;;;;;;;;;;5071701;28;20280;-74
2022/07/06 05:39:49;;;;;;;6.63;3.70;;;;;;;;;;5072777;28;20234;-74
2022/07/06 05:42:16;;;;;;;5.93;3.60;;;;;;;;;;5072534;28;20705;-75
2022/07/06 05:44:43;;;;;;;6.17;3.00;;;;;;;;;;5060808;28;20239;-75
2022/07/06 05:50:14;;;;;;;3.13;2.83;;;;;;;;;;5065689;28;20198;-74
2022/07/06 05:52:41;;;;;;;3.23;2.57;;;;;;;;;;5065051;28;20278;-75
2022/07/06 05:55:11;;;;;;;5.67;2.90;;;;;;;;;;5064899;28;20226;-75
2022/07/06 05:57:38;;;;;;;6.37;3.20;;;;;;;;;;5062667;28;20282;-75
2022/07/06 06:00:06;;;;;;;5.90;3.17;;;;;;;;;;5063111;28;20204;-75
2022/07/06 06:02:40;;;;;;;4.00;2.70;;;;;;;;;;5057866;28;20230;-75
2022/07/06 06:05:08;;;;;;;4.95;2.90;;;;;;;;;;5061005;28;20200;-75
2022/07/06 06:07:36;;;;;;;3.45;2.45;;;;;;;;;;5071340;28;20291;-75
2022/07/06 06:10:04;;;;;;;4.95;2.95;;;;;;;;;;5070909;28;20905;-75
2022/07/06 06:12:33;;;;;;;3.72;2.60;;;;;;;;;;5063362;28;20402;-75
2022/07/06 06:15:00;;;;;;;5.28;2.33;;;;;;;;;;5070138;28;20281;-75
2022/07/06 06:17:28;;;;;;;3.97;2.78;;;;;;;;;;5066211;28;20234;-75
2022/07/06 06:19:55;;;;;;;5.65;2.80;;;;;;;;;;5066173;28;20604;-75
2022/07/06 06:22:22;;;;;;;4.70;2.45;;;;;;;;;;5064156;28;20319;-75
2022/07/06 06:24:49;;;;;;;5.05;2.50;;;;;;;;;;5081258;28;20230;-75
2022/07/06 06:27:16;;;;;;;3.25;2.20;;;;;;;;;;5067050;28;20360;-76
2022/07/06 06:29:45;;;;;;;3.58;2.30;;;;;;;;;;5070702;28;20290;-76
2022/07/06 06:32:13;;;;;;;6.25;2.20;;;;;;;;;;5074861;28;20203;-76
2022/07/06 06:34:40;;;;;;;4.25;2.42;;;;;;;;;;5060913;28;20235;-75
2022/07/06 06:37:07;;;;;;;4.30;2.35;;;;;;;;;;5069680;28;20294;-76
2022/07/06 06:39:34;;;;;;;3.65;2.30;;;;;;;;;;5066688;28;20373;-76
2022/07/06 06:42:02;;;;;;;4.85;2.38;;;;;;;;;;5068361;28;20202;-76
2022/07/06 06:44:29;;;;;;;2.40;1.90;;;;;;;;;;5062607;28;20667;-76
2022/07/06 06:46:57;;;;;;;4.90;1.77;;;;;;;;;;5064105;28;20199;-76
2022/07/06 06:49:24;;;;;;;3.53;1.98;;;;;;;;;;5073284;28;20282;-76
2022/07/06 06:51:52;;;;;;;4.40;2.00;;;;;;;;;;5063967;28;20283;-75
2022/07/06 06:54:19;;;;;;;4.32;1.90;;;;;;;;;;5072270;28;20650;-76
2022/07/06 06:56:46;;;;;;;3.20;2.00;;;;;;;;;;5072189;28;20280;-75
2022/07/06 06:59:13;;;;;;;2.80;1.80;;;;;;;;;;5077527;28;20202;-75
2022/07/06 07:01:40;;;;;;;3.15;1.85;;;;;;;;;;5078526;28;20287;-76
2022/07/06 07:04:09;;;;;;;3.38;2.00;;;;;;;;;;5072605;28;20696;-76
2022/07/06 07:06:36;;;;;;;4.10;1.90;;;;;;;;;;5071150;28;20203;-73
2022/07/06 07:09:04;;;;;;;2.92;1.73;;;;;;;;;;5069805;28;20232;-75
2022/07/06 07:11:32;;;;;;;2.63;1.85;;;;;;;;;;5071371;28;20287;-75
2022/07/06 07:14:00;;;;;;;4.20;1.73;;;;;;;;;;5075490;28;20274;-75
2022/07/06 07:16:27;;;;;;;4.43;1.80;;;;;;;;;;5062152;28;20200;-75
2022/07/06 07:18:54;;;;;;;2.60;1.90;;;;;;;;;;5071043;28;20290;-74
2022/07/06 07:21:23;;;;;;;4.65;1.67;;;;;;;;;;5066080;28;20286;-75
2022/07/06 07:23:50;;;;;;;3.92;1.90;;;;;;;;;;5072249;28;20306;-75
2022/07/06 07:26:18;;;;;;;4.40;1.92;;;;;;;;;;5069749;28;20721;-75
2022/07/06 07:28:45;;;;;;;3.15;1.85;;;;;;;;;;5067386;28;20577;-75
2022/07/06 07:31:12;;;;;;;3.20;1.80;;;;;;;;;;5077665;28;20248;-75
2022/07/06 07:33:39;;;;;;;3.10;2.20;;;;;;;;;;5079716;28;20639;-75
2022/07/06 07:36:07;;;;;;;2.53;1.88;;;;;;;;;;5070711;28;20227;-75
2022/07/06 07:38:36;;;;;;;4.05;2.08;;;;;;;;;;5064239;28;20231;-74
2022/07/06 07:41:03;;;;;;;4.00;2.05;;;;;;;;;;5060488;28;20214;-75
2022/07/06 07:43:31;;;;;;;4.78;2.30;;;;;;;;;;5073427;28;20231;-75
2022/07/06 07:45:58;;;;;;;3.45;2.10;;;;;;;;;;5070674;28;20203;-75
2022/07/06 07:48:25;;;;;;;3.65;1.98;;;;;;;;;;5063613;28;20223;-75
2022/07/06 07:50:52;;;;;;;4.32;2.03;;;;;;;;;;5057783;28;20305;-75
2022/07/06 07:53:20;;;;;;;3.38;1.70;;;;;;;;;;5064219;28;20286;-76
2022/07/06 07:55:48;;;;;;;2.65;1.67;;;;;;;;;;5069636;28;20238;-75
2022/07/06 07:58:15;;;;;;;3.55;1.80;;;;;;;;;;5076491;28;20234;-75
2022/07/06 08:00:43;;;;;;;3.17;1.77;;;;;;;;;;5064297;28;20231;-74
2022/07/06 08:03:10;;;;;;;2.42;1.55;;;;;;;;;;5086493;28;20313;-75
2022/07/06 08:05:37;;;;;;;3.88;1.60;;;;;;;;;;5057602;28;20969;-75
2022/07/06 08:08:05;;;;;;;2.45;1.42;;;;;;;;;;5057440;28;20236;-75
2022/07/06 08:10:32;;;;;;;3.42;1.60;;;;;;;;;;5064298;28;20203;-75
2022/07/06 08:13:00;;;;;;;2.05;1.33;;;;;;;;;;5055719;28;20753;-75
2022/07/06 08:15:28;;;;;;;3.15;1.70;;;;;;;;;;5064025;28;20227;-75
2022/07/06 08:17:55;;;;;;;3.75;1.55;;;;;;;;;;5074428;28;20249;-75
2022/07/06 08:20:22;;;;;;;2.60;1.52;;;;;;;;;;5056344;28;20283;-75
2022/07/06 08:22:50;;;;;;;2.53;1.60;;;;;;;;;;5069303;28;20241;-74
2022/07/06 08:25:17;;;;;;;3.65;1.60;;;;;;;;;;5063769;28;20293;-75
2022/07/06 08:27:44;;;;;;;2.20;1.40;;;;;;;;;;5069347;28;20580;-75
2022/07/06 08:30:13;;;;;;;2.67;1.60;;;;;;;;;;5070271;28;20230;-75
2022/07/06 08:32:41;;;;;;;3.47;1.60;;;;;;;;;;5072298;28;20199;-75
2022/07/06 08:35:09;;;;;;;2.40;1.33;;;;;;;;;;5072595;28;20294;-75
2022/07/06 08:37:36;;;;;;;3.28;1.50;;;;;;;;;;5072301;28;20291;-75
2022/07/06 08:40:04;;;;;;;1.77;1.27;;;;;;;;;;5071983;28;20682;-75
2022/07/06 08:42:32;;;;;;;2.33;1.58;;;;;;;;;;5072395;28;20662;-75
2022/07/06 08:45:00;;;;;;;3.88;1.60;;;;;;;;;;5069934;28;20250;-75
2022/07/06 08:47:29;;;;;;;3.65;2.10;;;;;;;;;;5054541;28;21476;-76
2022/07/06 08:49:57;;;;;;;3.83;2.17;;;;;;;;;;5072657;28;20301;-75
2022/07/06 08:52:24;;;;;;;3.10;1.70;;;;;;;;;;5075075;28;20288;-75
2022/07/06 08:54:51;;;;;;;4.05;1.77;;;;;;;;;;5065021;28;20224;-76
2022/07/06 08:57:19;;;;;;;2.42;1.90;;;;;;;;;;5082700;28;20689;-76
2022/07/06 08:59:46;;;;;;;3.78;2.42;;;;;;;;;;5092384;28;20237;-76
2022/07/06 09:02:15;;;;;;;5.15;2.35;;;;;;;;;;5058617;28;20236;-76
2022/07/06 09:04:44;;;;;;;3.58;2.40;;;;;;;;;;5066938;28;20253;-75
2022/07/06 09:07:11;;;;;;;4.78;2.65;;;;;;;;;;5075487;28;20248;-75
2022/07/06 09:09:39;;;;;;;5.07;2.92;;;;;;;;;;5069015;28;20200;-75
2022/07/06 09:12:10;;;;;;;3.85;3.22;;;;;;;;;;5055857;28;20223;-75
2022/07/06 09:14:37;;;;;;;3.22;2.70;;;;;;;;;;5069114;28;20227;-75
2022/07/06 09:17:05;;;;;;;7.93;5.57;;;;;;;;;;5064935;28;20226;-75
2022/07/06 09:19:32;;;;;;;7.45;4.78;;;;;;;;;;5087461;28;20704;-74
2022/07/06 09:22:01;;;;;;;5.35;4.32;;;;;;;;;;5079471;28;20282;-75
2022/07/06 09:24:28;;;;;;;5.25;4.22;;;;;;;;;;5074238;28;20308;-74
2022/07/06 09:26:57;;;;;;;5.93;4.30;;;;;;;;;;5076096;28;20234;-74
2022/07/06 09:29:28;;;;;;;4.90;3.53;;;;;;;;;;5074450;28;20616;-74
2022/07/06 09:31:59;;;;;;;4.50;3.50;;;;;;;;;;5056001;28;20570;-74
2022/07/06 09:34:26;;;;;;;4.60;3.72;;;;;;;;;;5071431;28;20199;-74
2022/07/06 09:36:54;;;;;;;4.30;3.00;;;;;;;;;;5075696;28;20666;-74
2022/07/06 09:39:27;;;;;;;5.50;2.60;;;;;;;;;;5077149;28;20218;-74
2022/07/06 09:41:55;;;;;;;3.00;2.30;;;;;;;;;;5076385;28;20660;-73
2022/07/06 09:44:23;;;;;;;3.40;2.33;;;;;;;;;;5055146;28;20323;-74
2022/07/06 09:46:51;;;;;;;3.47;2.80;;;;;;;;;;5058436;28;20198;-74
2022/07/06 09:49:19;;;;;;;4.95;2.40;;;;;;;;;;5070760;28;20242;-74
2022/07/06 09:51:47;;;;;;;2.70;2.30;;;;;;;;;;5074922;28;20239;-75
2022/07/06 09:54:14;;;;;;;2.85;2.13;;;;;;;;;;5065070;28;20196;-74
2022/07/06 09:56:44;;;;;;;4.93;2.40;;;;;;;;;;5063346;28;20289;-74
2022/07/06 09:59:11;;;;;;;2.33;2.10;;;;;;;;;;5061069;28;20200;-74
2022/07/06 10:01:39;;;;;;;5.20;2.17;;;;;;;;;;5071712;28;20207;-75
2022/07/06 10:04:07;;;;;;;5.07;2.65;;;;;;;;;;5069801;28;20310;-75
2022/07/06 10:06:34;;;;;;;4.47;2.55;;;;;;;;;;5075066;28;20234;-75
2022/07/06 10:09:01;;;;;;;3.47;2.85;;;;;;;;;;5074854;28;20289;-75
2022/07/06 10:11:30;;;;;;;2.47;2.28;;;;;;;;;;5070376;28;20209;-76
2022/07/06 10:13:59;;;;;;;2.80;2.40;;;;;;;;;;5072420;28;20187;-75
2022/07/06 10:16:27;;;;;;;3.33;2.40;;;;;;;;;;5070313;28;20230;-75
2022/07/06 10:18:54;;;;;;;3.65;2.10;;;;;;;;;;5073678;28;20260;-75
2022/07/06 10:21:22;;;;;;;3.65;2.22;;;;;;;;;;5075229;28;20203;-75
2022/07/06 10:23:50;;;;;;;2.83;1.90;;;;;;;;;;5061189;28;20747;-75
2022/07/06 10:26:18;;;;;;;3.30;1.75;;;;;;;;;;5074894;28;20241;-75
2022/07/06 10:28:47;;;;;;;3.13;2.13;;;;;;;;;;5057056;28;20217;-75
2022/07/06 10:31:17;;;;;;;3.95;2.17;;;;;;;;;;5075021;28;20203;-76
2022/07/06 10:33:45;;;;;;;2.25;1.90;;;;;;;;;;5074404;28;20230;-75
2022/07/06 10:36:13;;;;;;;4.32;1.63;;;;;;;;;;5058236;28;20231;-75
2022/07/06 10:38:40;;;;;;;2.83;1.70;;;;;;;;;;5077535;28;20241;-75
2022/07/06 10:41:07;;;;;;;1.70;1.48;;;;;;;;;;5073516;28;20249;-76
2022/07/06 10:43:37;;;;;;;3.13;1.40;;;;;;;;;;5086704;28;20217;-76
2022/07/06 10:46:09;;;;;;;3.05;1.50;;;;;;;;;;5072610;28;20238;-75
2022/07/06 10:48:37;;;;;;;1.70;1.33;;;;;;;;;;5081467;28;20747;-76
2022/07/06 10:51:05;;;;;;;4.45;1.73;;;;;;;;;;5073574;28;20265;-76
2022/07/06 10:53:34;;;;;;;2.10;1.55;;;;;;;;;;5061508;28;20200;-75
2022/07/06 10:56:02;;;;;;;2.10;1.67;;;;;;;;;;5071212;28;20204;-75
2022/07/06 10:58:36;;;;;;;2.67;1.52;;;;;;;;;;5094574;28;20692;-75
2022/07/06 11:01:05;;;;;;;3.05;1.73;;;;;;;;;;5077186;28;20235;-74
2022/07/06 11:03:41;;;;;;;2.58;1.42;;;;;;;;;;5067508;28;20231;-75
2022/07/06 11:06:10;;;;;;;3.83;1.60;;;;;;;;;;5082507;28;20191;-74
2022/07/06 11:08:51;;;;;;;2.50;1.30;;;;;;;;;;5061784;28;20238;-75
2022/07/06 11:11:19;;;;;;;2.88;1.55;;;;;;;;;;5078577;28;20677;-75
2022/07/06 11:13:50;;;;;;;1.88;1.20;;;;;;;;;;5081977;28;20195;-74
2022/07/06 11:16:18;;;;;;;1.48;1.30;;;;;;;;;;5074016;28;20294;-75
2022/07/06 11:18:49;;;;;;;2.17;1.42;;;;;;;;;;5085755;28;20210;-75
2022/07/06 11:21:20;;;;;;;2.53;1.20;;;;;;;;;;5089559;28;20200;-74
2022/07/06 11:23:49;;;;;;;2.15;1.10;;;;;;;;;;5093911;28;20285;-75
2022/07/06 11:26:16;;;;;;;2.17;1.45;;;;;;;;;;5093770;28;20747;-75
2022/07/06 11:28:43;;;;;;;3.75;1.33;;;;;;;;;;5094188;28;20248;-75
2022/07/06 11:31:12;;;;;;;3.08;1.50;;;;;;;;;;5078902;28;20326;-75
2022/07/06 11:33:41;;;;;;;2.38;1.42;;;;;;;;;;5066179;28;20241;-75
2022/07/06 11:36:17;;;;;;;1.88;1.40;;;;;;;;;;5065960;28;20240;-75
2022/07/06 11:38:44;;;;;;;1.92;1.25;;;;;;;;;;5069823;28;20238;-75
2022/07/06 11:41:13;;;;;;;2.60;1.30;;;;;;;;;;5056084;28;20290;-75
2022/07/06 11:43:42;;;;;;;2.28;1.27;;;;;;;;;;5073097;28;20207;-75
2022/07/06 11:46:19;;;;;;;3.05;1.40;;;;;;;;;;5072338;28;20332;-75
2022/07/06 11:48:47;;;;;;;3.58;1.55;;;;;;;;;;5079313;28;20226;-74
2022/07/06 11:51:15;;;;;;;1.75;1.30;;;;;;;;;;5076837;28;20296;-75
2022/07/06 11:53:45;;;;;;;2.67;1.55;;;;;;;;;;5072701;28;20746;-75
2022/07/06 11:56:13;;;;;;;2.55;1.20;;;;;;;;;;5092308;28;20573;-75
2022/07/06 11:58:42;;;;;;;1.95;1.30;;;;;;;;;;5093449;28;20662;-75
2022/07/06 12:01:10;;;;;;;2.40;1.40;;;;;;;;;;5078443;28;20192;-75
2022/07/06 12:03:38;;;;;;;2.38;1.60;;;;;;;;;;5070438;28;20575;-75
2022/07/06 12:06:06;;;;;;;1.63;1.13;;;;;;;;;;5068381;28;20317;-74
2022/07/06 12:08:33;;;;;;;1.60;1.40;;;;;;;;;;5072409;28;20741;-75
2022/07/06 12:11:02;;;;;;;1.30;1.20;;;;;;;;;;5084807;28;20195;-75
2022/07/06 12:13:38;;;;;;;2.35;1.20;;;;;;;;;;5059682;28;20693;-75
2022/07/06 12:16:10;;;;;;;2.20;1.33;;;;;;;;;;5079397;28;20585;-75
2022/07/06 12:18:38;;;;;;;1.45;1.20;;;;;;;;;;5066412;28;20775;-74
2022/07/06 12:21:06;;;;;;;3.67;1.38;;;;;;;;;;5075278;28;21022;-75
2022/07/06 12:23:40;;;;;;;2.20;1.10;;;;;;;;;;5087326;28;20288;-75
2022/07/06 12:26:08;;;;;;;2.60;1.20;;;;;;;;;;5074679;28;20295;-75
2022/07/06 12:28:36;;;;;;;1.58;1.23;;;;;;;;;;5072175;28;20659;-75
2022/07/06 12:31:03;;;;;;;1.67;1.10;;;;;;;;;;5066785;28;20693;-75
2022/07/06 12:33:31;;;;;;;1.73;1.10;;;;;;;;;;5072440;28;20238;-75
2022/07/06 12:35:58;;;;;;;3.67;1.40;;;;;;;;;;5074030;28;20203;-75
2022/07/06 12:38:26;;;;;;;3.00;1.30;;;;;;;;;;5066775;28;20288;-75
2022/07/06 12:40:53;;;;;;;2.63;1.23;;;;;;;;;;5082621;28;20290;-75
2022/07/06 12:43:35;;;;;;;3.35;1.48;;;;;;;;;;5057808;28;20196;-74
2022/07/06 12:46:17;;;;;;;3.30;1.20;;;;;;;;;;5068952;28;20226;-74
2022/07/06 12:48:53;;;;;;;4.45;1.30;;;;;;;;;;5066505;28;20231;-74
2022/07/06 12:51:21;;;;;;;1.30;1.13;;;;;;;;;;5070817;28;20380;-75
2022/07/06 12:53:48;;;;;;;2.08;1.20;;;;;;;;;;5066124;28;20702;-74
2022/07/06 12:56:15;;;;;;;6.35;1.20;;;;;;;;;;5058177;28;20671;-75
2022/07/06 12:58:55;;;;;;;1.85;1.10;;;;;;;;;;5061699;28;20235;-75
2022/07/06 13:01:22;;;;;;;4.82;1.50;;;;;;;;;;5063582;28;20260;-74
2022/07/06 13:03:55;;;;;;;2.95;1.10;;;;;;;;;;5058640;28;20682;-75
2022/07/06 13:06:30;;;;;;;2.90;1.20;;;;;;;;;;5080128;28;20742;-75
2022/07/06 13:08:57;;;;;;;2.28;0.90;;;;;;;;;;5066503;28;20197;-75
2022/07/06 13:11:24;;;;;;;1.98;1.20;;;;;;;;;;5082079;28;20631;-75
2022/07/06 13:13:52;;;;;;;2.30;1.27;;;;;;;;;;5063413;28;20257;-75
2022/07/06 13:16:19;;;;;;;2.70;1.10;;;;;;;;;;5070224;28;20257;-75
2022/07/06 13:18:46;;;;;;;1.55;1.05;;;;;;;;;;5058130;28;20253;-76
2022/07/06 13:21:14;;;;;;;1.27;1.00;;;;;;;;;;5067052;28;20238;-75
2022/07/06 13:23:42;;;;;;;4.47;1.20;;;;;;;;;;5072209;28;20241;-75
2022/07/06 13:26:09;;;;;;;2.47;1.23;;;;;;;;;;5071342;28;20667;-74
2022/07/06 13:28:37;;;;;;;1.08;0.90;;;;;;;;;;5072019;28;20234;-75
2022/07/06 13:31:04;;;;;;;1.42;1.00;;;;;;;;;;5071792;28;20221;-75
2022/07/06 13:33:31;;;;;;;2.10;1.00;;;;;;;;;;5056696;28;20286;-75
2022/07/06 13:35:58;;;;;;;2.13;1.20;;;;;;;;;;5063240;28;20732;-74
2022/07/06 13:38:26;;;;;;;2.60;1.25;;;;;;;;;;5071756;28;20237;-76
2022/07/06 13:40:54;;;;;;;1.35;1.02;;;;;;;;;;5071564;28;20292;-75
2022/07/06 13:43:22;;;;;;;2.05;1.25;;;;;;;;;;5072160;28;20624;-74
2022/07/06 13:45:49;;;;;;;1.85;1.30;;;;;;;;;;5060153;28;20667;-75
2022/07/06 13:48:16;;;;;;;2.55;1.20;;;;;;;;;;5072042;28;20234;-75
2022/07/06 13:50:44;;;;;;;3.05;0.95;;;;;;;;;;5070900;28;20706;-75
2022/07/06 13:53:11;;;;;;;2.38;1.30;;;;;;;;;;5071758;28;20235;-75
2022/07/06 13:55:38;;;;;;;2.08;1.00;;;;;;;;;;5071149;28;20226;-74
2022/07/06 13:58:07;;;;;;;1.25;1.00;;;;;;;;;;5082907;28;20237;-75
2022/07/06 14:00:34;;;;;;;1.10;1.00;;;;;;;;;;5051916;28;20208;-75
2022/07/06 14:03:01;;;;;;;1.92;1.20;;;;;;;;;;5053947;28;20298;-75
2022/07/06 14:05:30;;;;;;;3.00;1.30;;;;;;;;;;5062849;28;20243;-75
2022/07/06 14:07:57;;;;;;;3.40;1.30;;;;;;;;;;5070555;28;20217;-75
2022/07/06 14:10:24;;;;;;;1.65;1.05;;;;;;;;;;5090958;28;20203;-76
2022/07/06 14:12:52;;;;;;;2.03;1.45;;;;;;;;;;5065619;28;20204;-75
2022/07/06 14:15:20;;;;;;;2.20;1.30;;;;;;;;;;5071537;28;20322;-75
2022/07/06 14:17:48;;;;;;;3.33;1.20;;;;;;;;;;5073551;28;20286;-75
2022/07/06 14:20:15;;;;;;;1.58;1.20;;;;;;;;;;5068583;28;20199;-75
2022/07/06 14:22:42;;;;;;;1.52;1.20;;;;;;;;;;5073817;28;20301;-75
2022/07/06 14:25:10;;;;;;;1.88;1.20;;;;;;;;;;5076800;28;20282;-74
2022/07/06 14:27:38;;;;;;;2.78;1.30;;;;;;;;;;5075058;28;20199;-75
2022/07/06 14:30:05;;;;;;;2.03;1.20;;;;;;;;;;5074872;28;20597;-75
2022/07/06 14:32:34;;;;;;;1.92;1.10;;;;;;;;;;5070730;28;20290;-75
2022/07/06 14:35:01;;;;;;;1.52;1.30;;;;;;;;;;5066298;28;20254;-74
2022/07/06 14:37:28;;;;;;;1.77;1.33;;;;;;;;;;5066661;28;20234;-74
2022/07/06 14:39:55;;;;;;;5.40;1.30;;;;;;;;;;5066538;28;20211;-75
2022/07/06 14:42:22;;;;;;;2.35;1.33;;;;;;;;;;5073406;28;20242;-74
2022/07/06 14:44:51;;;;;;;1.48;1.20;;;;;;;;;;5073974;28;20291;-74
2022/07/06 14:47:18;;;;;;;2.65;1.27;;;;;;;;;;5067077;28;20213;-75
2022/07/06 14:49:46;;;;;;;1.80;1.00;;;;;;;;;;5070093;28;20239;-75
2022/07/06 14:52:14;;;;;;;1.30;1.00;;;;;;;;;;5069361;28;20274;-75